Time;durP1;ratioP1;P1;durP2;ratioP2;P2;SDS_P1;SDS_P2;PMS_P1;PMS_P2;Temp;Humidity;BMP_temperature;BMP_pressure;BME280_temperature;BME280_humidity;BME280_pressure;Samples;Min_cycle;Max_cycle;Signal;HPM_P1;HPM_P2
2022/01/26 00:00:06;;;;;;;0.20;0.10;;;;;;;2.28;100.00;101879.75;5066719;28;20494;-50
2022/01/26 00:08:05;;;;;;;0.20;0.17;;;;;;;2.25;100.00;101871.81;5055816;28;20490;-50
2022/01/26 00:10:33;;;;;;;0.20;0.10;;;;;;;2.29;100.00;101878.03;5073259;28;20484;-51
2022/01/26 00:13:00;;;;;;;0.20;0.10;;;;;;;2.27;100.00;101877.09;5058906;28;20446;-51
2022/01/26 00:15:29;;;;;;;0.20;0.10;;;;;;;2.35;100.00;101871.25;5062476;28;20540;-50
2022/01/26 00:17:57;;;;;;;0.20;0.10;;;;;;;2.31;100.00;101869.34;5065907;28;20447;-50
2022/01/26 00:20:35;;;;;;;0.20;0.10;;;;;;;2.25;100.00;101863.06;5062777;28;20492;-50
2022/01/26 00:23:35;;;;;;;0.20;0.10;;;;;;;2.14;100.00;101861.81;5058616;28;20485;-50
2022/01/26 00:28:45;;;;;;;0.20;0.20;;;;;;;2.18;100.00;101868.94;5062967;28;20486;-50
2022/01/26 00:31:59;;;;;;;0.20;0.10;;;;;;;2.17;100.00;101870.66;5065855;28;20451;-50
2022/01/26 00:39:30;;;;;;;0.20;0.10;;;;;;;2.14;100.00;101861.81;5068898;28;20500;-50
2022/01/26 00:41:59;;;;;;;0.20;0.10;;;;;;;2.02;100.00;101855.34;5069213;28;20481;-50
2022/01/26 00:44:33;;;;;;;0.20;0.10;;;;;;;2.20;100.00;101860.31;5056013;28;20497;-51
2022/01/26 00:47:00;;;;;;;0.20;0.10;;;;;;;2.18;100.00;101853.19;5069642;28;20477;-50
2022/01/26 00:49:27;;;;;;;0.20;0.10;;;;;;;2.29;100.00;101849.19;5065127;28;20489;-50
2022/01/26 00:51:54;;;;;;;0.20;0.10;;;;;;;2.33;100.00;101851.03;5055888;28;20496;-50
2022/01/26 00:54:21;;;;;;;0.20;0.10;;;;;;;2.30;100.00;101853.56;5066384;28;20829;-50
2022/01/26 00:56:49;;;;;;;0.20;0.10;;;;;;;2.31;100.00;101860.59;5069121;28;20966;-51
2022/01/26 00:59:15;;;;;;;0.20;0.10;;;;;;;2.17;100.00;101864.53;5064888;28;21060;-50
2022/01/26 01:01:42;;;;;;;0.50;0.50;;;;;;;2.06;100.00;101848.50;5059502;28;20446;-50
2022/01/26 01:04:09;;;;;;;0.30;0.20;;;;;;;2.05;100.00;101849.31;5065341;28;20507;-50
2022/01/26 01:06:45;;;;;;;0.30;0.30;;;;;;;2.03;100.00;101857.13;5061936;28;20470;-50
2022/01/26 01:09:12;;;;;;;2.60;0.93;;;;;;;2.11;100.00;101854.75;5074178;28;20520;-50
2022/01/26 01:11:39;;;;;;;0.20;0.10;;;;;;;1.98;100.00;101856.09;5061532;28;20996;-50
2022/01/26 01:14:05;;;;;;;0.20;0.20;;;;;;;2.17;100.00;101859.28;5063449;28;20443;-50
2022/01/26 01:16:32;;;;;;;0.20;0.10;;;;;;;2.18;100.00;101861.97;5059315;28;20556;-50
2022/01/26 01:30:11;;;;;;;1.40;1.40;;;;;;;2.28;100.00;101876.25;5052392;28;20528;-50
2022/01/26 01:32:50;;;;;;;2.20;2.10;;;;;;;2.41;100.00;101874.91;5063132;28;20449;-51
2022/01/26 01:35:18;;;;;;;0.20;0.10;;;;;;;2.34;100.00;101879.09;5064534;28;20520;-51
2022/01/26 01:37:45;;;;;;;0.20;0.10;;;;;;;2.27;100.00;101879.72;5061377;28;20481;-50
2022/01/26 01:40:12;;;;;;;0.20;0.10;;;;;;;2.30;100.00;101879.81;5063961;28;20451;-50
2022/01/26 01:42:39;;;;;;;0.20;0.10;;;;;;;2.25;100.00;101873.53;5068654;28;20866;-50
2022/01/26 01:45:06;;;;;;;0.20;0.10;;;;;;;2.07;100.00;101882.63;5052230;28;20585;-51
2022/01/26 01:47:33;;;;;;;0.20;0.20;;;;;;;2.12;100.00;101881.88;5048723;28;20477;-50
2022/01/26 01:50:02;;;;;;;0.30;0.30;;;;;;;2.17;100.00;101883.78;5069289;28;20520;-51
2022/01/26 01:52:29;;;;;;;0.20;0.10;;;;;;;2.25;100.00;101884.03;5049530;28;20493;-50
2022/01/26 01:55:02;;;;;;;0.20;0.10;;;;;;;2.18;100.00;101884.66;5068936;28;20535;-50
2022/01/26 01:57:29;;;;;;;0.20;0.10;;;;;;;2.01;100.00;101869.31;5064248;28;20511;-50
2022/01/26 01:59:56;;;;;;;0.20;0.10;;;;;;;2.03;100.00;101878.09;5061982;28;20447;-51
2022/01/26 02:02:22;;;;;;;0.20;0.10;;;;;;;2.19;100.00;101873.34;5065830;28;20462;-51
2022/01/26 02:04:49;;;;;;;0.20;0.10;;;;;;;2.09;100.00;101866.94;5056899;28;20983;-50
2022/01/26 02:07:16;;;;;;;0.20;0.20;;;;;;;1.96;100.00;101868.28;5074388;28;20515;-50
2022/01/26 02:09:43;;;;;;;0.20;0.10;;;;;;;1.96;100.00;101873.53;5057846;28;20572;-50
2022/01/26 02:12:16;;;;;;;0.20;0.10;;;;;;;1.99;100.00;101880.59;5062451;28;20481;-50
2022/01/26 02:14:49;;;;;;;0.20;0.10;;;;;;;2.02;100.00;101876.31;5060835;28;20503;-50
2022/01/26 02:17:31;;;;;;;0.20;0.10;;;;;;;2.04;100.00;101879.00;5057774;28;20442;-50
2022/01/26 02:20:34;;;;;;;0.20;0.10;;;;;;;2.04;100.00;101863.25;5067070;28;20481;-51
2022/01/26 02:58:35;;;;;;;0.20;0.10;;;;;;;1.88;100.00;101854.03;5059873;28;20486;-51
2022/01/26 03:03:25;;;;;;;0.20;0.10;;;;;;;1.77;100.00;101842.31;5066267;28;20486;-50
2022/01/26 03:06:06;;;;;;;0.20;0.10;;;;;;;1.72;100.00;101843.91;5064863;28;20903;-50
2022/01/26 03:08:42;;;;;;;0.20;0.10;;;;;;;1.75;100.00;101843.97;5067713;28;20491;-50
2022/01/26 03:11:11;;;;;;;0.20;0.10;;;;;;;1.92;100.00;101844.53;5053959;28;20450;-51
2022/01/26 03:13:47;;;;;;;0.20;0.10;;;;;;;2.00;100.00;101846.56;5053998;28;20520;-51
2022/01/26 03:16:21;;;;;;;0.20;0.10;;;;;;;1.94;100.00;101841.13;5051567;28;20498;-50
2022/01/26 03:19:04;;;;;;;0.20;0.10;;;;;;;1.90;100.00;101841.84;5072347;28;20919;-51
2022/01/26 03:34:56;;;;;;;0.20;0.10;;;;;;;2.07;100.00;101851.16;5063091;28;20474;-50
2022/01/26 03:37:28;;;;;;;0.20;0.10;;;;;;;2.02;100.00;101850.09;5066016;28;20475;-50
2022/01/26 03:39:55;;;;;;;0.20;0.10;;;;;;;2.06;100.00;101859.88;5052907;28;20478;-50
2022/01/26 03:42:21;;;;;;;0.20;0.10;;;;;;;2.03;100.00;101851.00;5070606;28;21009;-51
2022/01/26 03:44:48;;;;;;;0.20;0.20;;;;;;;2.06;100.00;101849.38;5050598;28;20448;-50
2022/01/26 03:47:15;;;;;;;0.20;0.10;;;;;;;2.10;100.00;101852.09;5055154;28;20494;-50
2022/01/26 03:49:42;;;;;;;0.20;0.10;;;;;;;2.22;100.00;101842.88;5060922;28;20564;-51
2022/01/26 03:52:10;;;;;;;0.20;0.10;;;;;;;2.12;100.00;101842.53;5064483;28;20540;-50
2022/01/26 03:54:37;;;;;;;0.20;0.10;;;;;;;2.07;100.00;101831.91;5060642;28;20447;-50
2022/01/26 03:57:04;;;;;;;0.30;0.30;;;;;;;2.15;100.00;101829.50;5065705;28;20888;-50
2022/01/26 03:59:30;;;;;;;0.20;0.20;;;;;;;2.25;100.00;101831.56;5052487;28;20474;-51
2022/01/26 04:01:57;;;;;;;0.20;0.10;;;;;;;2.23;100.00;101838.50;5070855;28;20826;-50
2022/01/26 04:04:24;;;;;;;0.20;0.20;;;;;;;2.42;100.00;101848.69;5060045;28;20823;-50
2022/01/26 04:06:51;;;;;;;0.87;0.77;;;;;;;2.43;100.00;101855.72;5065740;28;20480;-51
2022/01/26 04:09:19;;;;;;;0.20;0.10;;;;;;;2.30;100.00;101859.72;5066409;28;20481;-50
2022/01/26 04:11:49;;;;;;;0.20;0.10;;;;;;;2.45;100.00;101861.91;5062932;28;20485;-51
2022/01/26 04:14:20;;;;;;;0.20;0.10;;;;;;;2.32;100.00;101855.41;5063301;28;20446;-50
2022/01/26 04:16:47;;;;;;;0.20;0.10;;;;;;;2.29;100.00;101855.31;5052642;28;20463;-50
2022/01/26 04:19:15;;;;;;;0.20;0.10;;;;;;;2.27;100.00;101870.13;5069396;28;20495;-50
2022/01/26 04:22:04;;;;;;;0.20;0.10;;;;;;;2.24;100.00;101853.41;5063797;28;20821;-51
2022/01/26 04:24:42;;;;;;;0.20;0.10;;;;;;;2.12;100.00;101855.66;5062717;28;20989;-50
2022/01/26 04:29:41;;;;;;;0.20;0.10;;;;;;;2.22;100.00;101855.09;5056189;28;20490;-51
2022/01/26 04:32:09;;;;;;;0.20;0.10;;;;;;;2.19;100.00;101852.34;5069696;28;20890;-50
2022/01/26 04:34:36;;;;;;;1.60;1.07;;;;;;;2.19;100.00;101850.63;5055992;28;20939;-50
2022/01/26 04:37:17;;;;;;;0.20;0.10;;;;;;;2.22;100.00;101842.88;5055407;22;20504;-54
2022/01/26 04:39:53;;;;;;;0.20;0.10;;;;;;;2.23;100.00;101835.88;5055925;28;20497;-56
2022/01/26 04:42:31;;;;;;;0.20;0.10;;;;;;;2.18;100.00;101830.47;5055595;28;20504;-56
2022/01/26 04:45:03;;;;;;;0.20;0.10;;;;;;;2.23;100.00;101822.78;5042132;28;20447;-56
2022/01/26 04:47:29;;;;;;;0.20;0.10;;;;;;;2.14;100.00;101815.50;5048900;28;20475;-56
2022/01/26 04:49:56;;;;;;;0.20;0.10;;;;;;;2.27;100.00;101815.03;5048644;28;20846;-56
2022/01/26 04:52:23;;;;;;;0.20;0.10;;;;;;;2.34;100.00;101811.75;5042026;28;20494;-56
2022/01/26 04:54:50;;;;;;;0.20;0.10;;;;;;;2.40;100.00;101808.41;5042755;28;20447;-56
2022/01/26 04:57:16;;;;;;;0.20;0.10;;;;;;;2.35;100.00;101802.16;5048965;28;20472;-55
2022/01/26 04:59:43;;;;;;;0.20;0.10;;;;;;;2.30;100.00;101803.72;5048543;28;20454;-56
2022/01/26 05:02:09;;;;;;;0.20;0.10;;;;;;;2.30;100.00;101801.09;5049052;28;20513;-56
2022/01/26 05:04:36;;;;;;;0.20;0.10;;;;;;;2.34;100.00;101797.75;5048623;28;20458;-56
2022/01/26 05:07:03;;;;;;;0.20;0.10;;;;;;;2.36;100.00;101806.56;5041743;28;20475;-55
2022/01/26 05:09:30;;;;;;;0.20;0.10;;;;;;;2.31;100.00;101816.88;5041993;28;20996;-55
2022/01/26 05:11:57;;;;;;;0.20;0.10;;;;;;;2.37;100.00;101821.44;5028668;28;20850;-56
2022/01/26 05:14:24;;;;;;;0.20;0.10;;;;;;;2.36;100.00;101811.81;5041890;28;20498;-56
2022/01/26 05:16:50;;;;;;;0.20;0.10;;;;;;;2.49;100.00;101811.31;5028501;28;20471;-56
2022/01/26 05:19:17;;;;;;;0.20;0.10;;;;;;;2.52;100.00;101815.75;5047867;28;20447;-57
2022/01/26 05:21:44;;;;;;;0.20;0.10;;;;;;;2.58;100.00;101821.16;5028809;28;20458;-56
2022/01/26 05:24:11;;;;;;;0.30;0.30;;;;;;;2.45;100.00;101805.91;5041715;28;20494;-56
2022/01/26 05:26:39;;;;;;;0.20;0.20;;;;;;;2.38;100.00;101808.38;5028780;28;20979;-55
2022/01/26 05:29:11;;;;;;;0.30;0.10;;;;;;;2.42;100.00;101803.19;5041013;28;20992;-53
2022/01/26 05:31:37;;;;;;;0.20;0.10;;;;;;;2.57;100.00;101815.03;5047289;28;20448;-56
2022/01/26 05:34:04;;;;;;;0.20;0.10;;;;;;;2.92;100.00;101817.75;5047883;28;20929;-55
2022/01/26 05:36:31;;;;;;;0.20;0.10;;;;;;;2.52;100.00;101798.28;5042832;28;20517;-55
2022/01/26 05:38:58;;;;;;;0.30;0.20;;;;;;;2.51;100.00;101798.22;5041261;28;20952;-55
2022/01/26 05:41:24;;;;;;;0.20;0.10;;;;;;;2.47;100.00;101797.25;5046145;28;20490;-55
2022/01/26 05:43:51;;;;;;;0.20;0.10;;;;;;;2.51;100.00;101791.25;5046569;28;20479;-55
2022/01/26 05:46:26;;;;;;;0.20;0.10;;;;;;;2.83;100.00;101791.25;5044288;28;21002;-55
2022/01/26 05:48:55;;;;;;;0.20;0.10;;;;;;;2.57;100.00;101780.91;5041086;28;20470;-55
2022/01/26 05:51:22;;;;;;;0.20;0.10;;;;;;;2.61;100.00;101774.91;5039040;28;20511;-55
2022/01/26 05:53:49;;;;;;;0.20;0.10;;;;;;;2.76;100.00;101776.19;5019786;28;20942;-55
2022/01/26 05:56:16;;;;;;;0.20;0.10;;;;;;;2.80;100.00;101781.53;5043004;28;20507;-55
2022/01/26 05:58:42;;;;;;;0.20;0.10;;;;;;;2.82;100.00;101777.22;5047727;28;20546;-55
2022/01/26 06:01:12;;;;;;;0.20;0.20;;;;;;;2.70;100.00;101776.00;5045848;28;20442;-55
2022/01/26 06:03:39;;;;;;;0.20;0.10;;;;;;;2.56;100.00;101781.75;5035457;28;20458;-55
2022/01/26 06:06:06;;;;;;;0.30;0.20;;;;;;;2.43;100.00;101795.38;5046208;28;20991;-55
2022/01/26 06:08:32;;;;;;;2.20;2.10;;;;;;;2.50;100.00;101799.97;5034911;28;20494;-55
2022/01/26 06:11:01;;;;;;;0.20;0.20;;;;;;;2.59;100.00;101807.19;5046603;28;20525;-55
2022/01/26 06:13:28;;;;;;;0.20;0.10;;;;;;;2.40;100.00;101807.53;5029691;28;20483;-55
2022/01/26 06:15:55;;;;;;;0.20;0.10;;;;;;;2.35;100.00;101796.91;5028782;28;20469;-55
2022/01/26 06:18:21;;;;;;;0.20;0.10;;;;;;;2.59;100.00;101804.56;5047250;28;20865;-55
2022/01/26 06:20:48;;;;;;;0.20;0.10;;;;;;;2.51;100.00;101807.00;5047041;28;20891;-55
2022/01/26 06:23:16;;;;;;;0.20;0.10;;;;;;;2.50;100.00;101813.09;5047238;28;20548;-55
2022/01/26 06:25:44;;;;;;;0.20;0.10;;;;;;;2.46;100.00;101815.56;5047091;28;20525;-53
2022/01/26 06:28:13;;;;;;;0.20;0.13;;;;;;;2.35;100.00;101813.53;5046881;28;20964;-53
2022/01/26 06:30:45;;;;;;;0.20;0.10;;;;;;;2.36;100.00;101820.56;5046347;28;20491;-53
2022/01/26 06:33:12;;;;;;;0.20;0.10;;;;;;;2.42;100.00;101814.59;5041608;28;20530;-53
2022/01/26 06:35:40;;;;;;;0.20;0.10;;;;;;;2.78;100.00;101830.50;5040223;28;20549;-53
2022/01/26 06:38:07;;;;;;;0.20;0.10;;;;;;;2.75;100.00;101834.78;5045140;28;20483;-55
2022/01/26 06:40:34;;;;;;;0.30;0.20;;;;;;;2.50;100.00;101841.94;5046648;28;20496;-56
2022/01/26 06:43:10;;;;;;;0.40;0.40;;;;;;;2.54;100.00;101850.81;5042694;28;20455;-55
2022/01/26 06:45:43;;;;;;;0.20;0.10;;;;;;;2.44;100.00;101856.63;5039661;28;20497;-55
2022/01/26 06:48:41;;;;;;;0.20;0.10;;;;;;;2.57;100.00;101861.38;5041953;28;20459;-55
2022/01/26 06:51:10;;;;;;;0.20;0.10;;;;;;;2.37;100.00;101873.91;5040350;28;20926;-55
2022/01/26 06:53:37;;;;;;;0.20;0.10;;;;;;;2.44;100.00;101870.63;5046571;28;20856;-55
2022/01/26 06:56:03;;;;;;;0.20;0.10;;;;;;;2.58;100.00;101874.53;5043453;28;20910;-56
2022/01/26 06:58:30;;;;;;;0.20;0.10;;;;;;;2.50;100.00;101869.94;5039837;28;20490;-55
2022/01/26 07:00:58;;;;;;;0.20;0.10;;;;;;;2.38;100.00;101873.06;5053012;28;20520;-55
2022/01/26 07:03:25;;;;;;;0.20;0.10;;;;;;;2.43;100.00;101889.84;5039255;28;20446;-55
2022/01/26 07:05:51;;;;;;;0.20;0.10;;;;;;;2.43;100.00;101895.09;5042282;28;20872;-55
2022/01/26 07:08:18;;;;;;;0.20;0.10;;;;;;;2.54;100.00;101906.81;5045844;28;20451;-54
2022/01/26 07:10:47;;;;;;;0.20;0.10;;;;;;;2.56;100.00;101889.34;5044278;28;20577;-54
2022/01/26 07:13:13;;;;;;;0.30;0.20;;;;;;;2.66;100.00;101888.78;5039228;28;20451;-53
2022/01/26 07:21:26;;;;;;;0.20;0.10;;;;;;;2.46;100.00;101874.19;5039074;28;20519;-55
2022/01/26 07:23:55;;;;;;;0.20;0.10;;;;;;;2.56;100.00;101884.13;5040021;28;20452;-55
2022/01/26 07:26:27;;;;;;;0.20;0.10;;;;;;;2.90;100.00;101874.59;5045694;28;20984;-56
2022/01/26 07:28:58;;;;;;;0.20;0.10;;;;;;;2.85;100.00;101891.94;5045707;28;20443;-55
2022/01/26 07:31:25;;;;;;;0.20;0.10;;;;;;;2.94;100.00;101893.09;5040469;28;20569;-56
2022/01/26 07:33:54;;;;;;;0.20;0.10;;;;;;;2.97;100.00;101897.53;5039154;28;20455;-54
2022/01/26 07:36:22;;;;;;;3.23;1.20;;;;;;;2.87;100.00;101896.38;5044040;28;20487;-54
2022/01/26 07:38:53;;;;;;;0.30;0.23;;;;;;;2.64;100.00;101897.47;5045539;28;20474;-54
2022/01/26 07:41:20;;;;;;;0.20;0.10;;;;;;;2.53;100.00;101889.28;5042124;28;20470;-53
2022/01/26 07:43:47;;;;;;;0.20;0.10;;;;;;;2.66;100.00;101887.91;5035774;28;20498;-54
2022/01/26 07:46:14;;;;;;;0.20;0.10;;;;;;;2.66;100.00;101886.16;5027213;28;20484;-53
2022/01/26 07:48:41;;;;;;;0.20;0.10;;;;;;;2.55;100.00;101879.72;5040359;28;20475;-54
2022/01/26 07:51:08;;;;;;;0.20;0.10;;;;;;;2.78;100.00;101893.50;5040049;28;20538;-53
2022/01/26 07:53:35;;;;;;;0.20;0.10;;;;;;;2.49;100.00;101891.78;5031723;28;20453;-54
2022/01/26 07:56:01;;;;;;;0.20;0.10;;;;;;;2.54;100.00;101877.03;5042242;28;20475;-53
2022/01/26 07:58:28;;;;;;;0.20;0.10;;;;;;;2.46;100.00;101874.19;5045656;28;20487;-54
2022/01/26 08:00:55;;;;;;;0.30;0.20;;;;;;;2.35;100.00;101867.75;5042493;28;20479;-53
2022/01/26 08:03:22;;;;;;;0.20;0.10;;;;;;;2.39;100.00;101872.22;5038669;28;20447;-53
2022/01/26 08:05:50;;;;;;;0.20;0.10;;;;;;;2.37;100.00;101856.44;5041402;28;20503;-53
2022/01/26 08:08:17;;;;;;;0.20;0.10;;;;;;;2.38;100.00;101839.84;5045148;28;20514;-54
2022/01/26 08:10:44;;;;;;;0.20;0.10;;;;;;;2.29;100.00;101830.81;5042838;28;20524;-53
2022/01/26 08:13:10;;;;;;;0.40;0.40;;;;;;;2.45;100.00;101833.03;5038706;28;20908;-54
2022/01/26 08:15:37;;;;;;;0.20;0.10;;;;;;;2.42;100.00;101837.31;5040847;28;20996;-54
2022/01/26 08:18:06;;;;;;;0.20;0.10;;;;;;;2.34;100.00;101829.22;5045294;28;21014;-54
2022/01/26 08:20:40;;;;;;;0.20;0.10;;;;;;;2.46;100.00;101836.56;5044336;28;20892;-54
2022/01/26 08:23:07;;;;;;;0.20;0.10;;;;;;;2.44;100.00;101846.13;5038705;28;20447;-54
2022/01/26 08:25:34;;;;;;;0.20;0.10;;;;;;;2.41;100.00;101844.28;5039086;28;20467;-54
2022/01/26 08:28:08;;;;;;;0.20;0.10;;;;;;;2.51;100.00;101851.59;5045152;28;20940;-54
2022/01/26 08:30:37;;;;;;;0.20;0.10;;;;;;;2.73;100.00;101860.09;5045092;28;20486;-54
2022/01/26 08:33:07;;;;;;;0.20;0.10;;;;;;;2.52;100.00;101856.00;5039429;28;20451;-54
2022/01/26 08:35:35;;;;;;;0.20;0.10;;;;;;;2.51;100.00;101851.59;5038297;28;20507;-54
2022/01/26 08:38:03;;;;;;;0.20;0.10;;;;;;;2.44;100.00;101847.00;5043727;28;20861;-54
2022/01/26 08:40:30;;;;;;;0.20;0.10;;;;;;;2.59;100.00;101852.69;5045174;28;20470;-54
2022/01/26 08:42:57;;;;;;;0.20;0.10;;;;;;;2.64;100.00;101856.38;5040482;28;20454;-54
2022/01/26 08:45:24;;;;;;;0.20;0.10;;;;;;;2.46;100.00;101857.53;5037688;28;20463;-54
2022/01/26 08:47:51;;;;;;;0.20;0.10;;;;;;;2.49;100.00;101852.41;5021287;28;20455;-54
2022/01/26 08:50:18;;;;;;;0.20;0.10;;;;;;;2.35;100.00;101846.75;5045017;28;20500;-54
2022/01/26 08:52:45;;;;;;;0.20;0.10;;;;;;;2.35;100.00;101838.88;5025747;28;20459;-54
2022/01/26 08:55:12;;;;;;;0.20;0.10;;;;;;;2.63;100.00;101849.34;5047185;28;20493;-54
2022/01/26 08:57:38;;;;;;;0.20;0.10;;;;;;;2.59;100.00;101842.19;5044851;28;20450;-54
2022/01/26 09:00:08;;;;;;;0.20;0.10;;;;;;;2.52;100.00;101850.75;5041708;28;20482;-54
2022/01/26 09:02:35;;;;;;;0.20;0.10;;;;;;;2.67;100.00;101852.94;5045447;28;20463;-54
2022/01/26 09:05:08;;;;;;;0.20;0.10;;;;;;;2.59;100.00;101860.56;5048552;28;20937;-54
2022/01/26 09:07:35;;;;;;;0.20;0.10;;;;;;;2.69;100.00;101851.25;5046291;28;20446;-54
2022/01/26 09:10:04;;;;;;;0.20;0.10;;;;;;;2.82;100.00;101852.47;5041489;28;20481;-54
2022/01/26 09:12:33;;;;;;;0.20;0.10;;;;;;;2.61;100.00;101866.78;5043378;28;20448;-54
2022/01/26 09:15:04;;;;;;;0.20;0.10;;;;;;;2.76;100.00;101853.22;5048873;28;20506;-54
2022/01/26 09:17:33;;;;;;;0.20;0.10;;;;;;;2.67;100.00;101861.69;5047606;28;20476;-54
2022/01/26 09:20:02;;;;;;;0.20;0.10;;;;;;;2.62;100.00;101863.31;5041575;28;20461;-54
2022/01/26 09:22:29;;;;;;;0.20;0.10;;;;;;;2.74;100.00;101862.78;5041626;28;20455;-54
2022/01/26 09:24:56;;;;;;;0.20;0.10;;;;;;;2.76;100.00;101870.69;5028966;28;20486;-54
2022/01/26 09:27:23;;;;;;;0.20;0.10;;;;;;;2.45;100.00;101872.41;5041365;28;20481;-54
2022/01/26 09:29:50;;;;;;;0.20;0.10;;;;;;;2.66;100.00;101875.66;5047504;28;20456;-54
2022/01/26 09:32:16;;;;;;;0.20;0.20;;;;;;;2.47;100.00;101886.47;5048525;28;20885;-54
2022/01/26 09:34:44;;;;;;;0.20;0.20;;;;;;;2.37;100.00;101901.03;5029640;28;20821;-54
2022/01/26 09:37:16;;;;;;;0.50;0.50;;;;;;;2.60;100.00;101907.00;5048027;28;20560;-54
2022/01/26 09:39:45;;;;;;;0.20;0.10;;;;;;;2.46;100.00;101897.78;5043048;28;20456;-54
2022/01/26 09:42:12;;;;;;;0.20;0.10;;;;;;;2.58;100.00;101900.78;5041272;28;20487;-54
2022/01/26 09:44:39;;;;;;;0.20;0.10;;;;;;;2.45;100.00;101906.50;5045027;28;20448;-54
2022/01/26 09:47:07;;;;;;;0.20;0.10;;;;;;;2.52;100.00;101916.38;5025682;28;20525;-54
2022/01/26 09:49:35;;;;;;;0.20;0.10;;;;;;;2.48;100.00;101909.25;5044775;28;20529;-54
2022/01/26 09:52:19;;;;;;;0.60;0.60;;;;;;;2.65;100.00;101913.25;5031090;28;20548;-54
2022/01/26 09:54:47;;;;;;;0.20;0.10;;;;;;;2.75;100.00;101908.31;5047913;28;20477;-54
2022/01/26 09:57:24;;;;;;;0.20;0.20;;;;;;;2.70;100.00;101905.53;5030636;28;20533;-54
2022/01/26 09:59:50;;;;;;;0.20;0.10;;;;;;;2.65;100.00;101897.53;5040568;28;20972;-54
2022/01/26 10:02:22;;;;;;;0.20;0.10;;;;;;;2.71;100.00;101896.78;5046573;28;20448;-54
2022/01/26 10:04:56;;;;;;;0.20;0.10;;;;;;;2.75;100.00;101926.69;5047306;28;20802;-54
2022/01/26 10:18:21;;;;;;;0.20;0.10;;;;;;;2.61;100.00;101919.28;5043232;28;20537;-54
2022/01/26 10:20:54;;;;;;;0.20;0.10;;;;;;;2.81;100.00;101918.97;5046646;28;20473;-54
2022/01/26 10:23:23;;;;;;;0.20;0.10;;;;;;;2.65;100.00;101910.66;5046363;28;20453;-54
2022/01/26 10:26:13;;;;;;;0.20;0.10;;;;;;;2.79;100.00;101894.41;5046702;28;21066;-54
2022/01/26 10:28:58;;;;;;;0.20;0.10;;;;;;;2.92;100.00;101901.78;5044563;28;20868;-55
2022/01/26 10:31:28;;;;;;;0.20;0.10;;;;;;;2.92;100.00;101913.19;5020882;28;20537;-54
2022/01/26 10:34:17;;;;;;;0.20;0.10;;;;;;;2.86;100.00;101914.72;5046759;28;20811;-54
2022/01/26 10:37:00;;;;;;;0.37;0.37;;;;;;;2.78;100.00;101914.53;5057597;22;20618;-53
2022/01/26 10:39:39;;;;;;;0.20;0.10;;;;;;;2.91;100.00;101923.66;5053839;28;20443;-53
2022/01/26 10:42:10;;;;;;;0.20;0.10;;;;;;;2.74;100.00;101915.28;5053378;28;20443;-53
2022/01/26 10:45:11;;;;;;;0.20;0.10;;;;;;;2.97;100.00;101910.69;5043962;28;20478;-53
2022/01/26 10:47:39;;;;;;;0.20;0.10;;;;;;;2.98;100.00;101920.34;5037802;28;20482;-54
2022/01/26 10:50:46;;;;;;;0.20;0.10;;;;;;;2.89;100.00;101915.72;5039713;28;20501;-54
2022/01/26 10:53:20;;;;;;;0.20;0.10;;;;;;;2.87;100.00;101919.13;5047494;28;20501;-53
2022/01/26 10:55:46;;;;;;;0.40;0.40;;;;;;;2.76;100.00;101913.59;5045457;28;20467;-54
2022/01/26 10:58:16;;;;;;;0.20;0.10;;;;;;;2.68;100.00;101917.72;5046189;28;20498;-53
2022/01/26 11:00:43;;;;;;;0.20;0.10;;;;;;;2.80;100.00;101922.44;5042121;28;20458;-53
2022/01/26 11:03:11;;;;;;;0.20;0.10;;;;;;;2.91;100.00;101906.16;5021992;28;20535;-54
2022/01/26 11:05:38;;;;;;;0.20;0.10;;;;;;;2.76;100.00;101895.22;5044168;28;20530;-54
2022/01/26 11:08:09;;;;;;;0.20;0.10;;;;;;;2.91;100.00;101902.63;5046532;28;20455;-53
2022/01/26 11:10:38;;;;;;;0.20;0.10;;;;;;;2.92;100.00;101909.66;5042959;28;20443;-53
2022/01/26 11:13:07;;;;;;;0.20;0.10;;;;;;;2.83;100.00;101920.78;5039450;28;20475;-53
2022/01/26 11:15:34;;;;;;;0.20;0.10;;;;;;;2.86;100.00;101918.25;5042256;28;20525;-53
2022/01/26 11:18:10;;;;;;;0.20;0.10;;;;;;;2.91;100.00;101911.41;5046001;28;20494;-54
2022/01/26 11:20:50;;;;;;;0.40;0.40;;;;;;;2.89;100.00;101901.72;5044865;28;20500;-52
2022/01/26 11:23:20;;;;;;;0.20;0.10;;;;;;;2.96;100.00;101896.66;5045627;28;20471;-55
2022/01/26 11:25:49;;;;;;;0.20;0.10;;;;;;;2.94;100.00;101889.59;5046178;28;20499;-54
2022/01/26 11:28:26;;;;;;;0.20;0.10;;;;;;;3.06;100.00;101899.56;5040773;28;20863;-54
2022/01/26 11:30:59;;;;;;;0.20;0.10;;;;;;;3.20;100.00;101899.09;5021973;28;20514;-54
2022/01/26 11:33:28;;;;;;;0.20;0.10;;;;;;;3.25;100.00;101892.19;5042269;28;20538;-54
2022/01/26 11:35:58;;;;;;;0.20;0.10;;;;;;;3.13;100.00;101896.22;5045759;28;20476;-51
2022/01/26 11:46:25;;;;;;;0.20;0.10;;;;;;;3.29;100.00;101872.19;5025996;28;20472;-54
2022/01/26 11:49:07;;;;;;;0.20;0.10;;;;;;;3.18;100.00;101882.41;5043384;28;20501;-54
2022/01/26 11:51:41;;;;;;;0.20;0.10;;;;;;;3.08;100.00;101877.72;5022578;28;20562;-54
2022/01/26 11:54:20;;;;;;;0.20;0.10;;;;;;;3.11;100.00;101883.06;5044352;28;20451;-54
2022/01/26 11:57:08;;;;;;;0.20;0.10;;;;;;;3.14;100.00;101888.38;5045326;28;20893;-54
2022/01/26 11:59:41;;;;;;;0.20;0.10;;;;;;;2.97;100.00;101884.41;5045111;28;20538;-54
2022/01/26 12:02:35;;;;;;;0.20;0.20;;;;;;;3.02;100.00;101890.72;5027679;28;20439;-53
2022/01/26 12:05:06;;;;;;;0.20;0.10;;;;;;;2.95;100.00;101892.25;5045509;28;20479;-54
2022/01/26 12:07:33;;;;;;;0.20;0.10;;;;;;;3.12;100.00;101890.09;5043699;28;20499;-54
2022/01/26 12:10:03;;;;;;;0.30;0.30;;;;;;;3.00;100.00;101883.59;5038984;28;20482;-54
2022/01/26 12:12:30;;;;;;;0.20;0.10;;;;;;;2.96;100.00;101873.03;5039710;28;20492;-53
2022/01/26 12:15:04;;;;;;;0.20;0.10;;;;;;;3.06;100.00;101876.81;5045423;28;21011;-54
2022/01/26 12:17:36;;;;;;;1.17;1.17;;;;;;;3.16;100.00;101883.22;5045547;28;20470;-54
2022/01/26 12:35:09;;;;;;;0.20;0.10;;;;;;;3.47;100.00;101898.94;4954161;28;20455;-54
2022/01/26 12:38:32;;;;;;;0.20;0.10;;;;;;;3.69;100.00;101899.47;5025411;28;20506;-54
2022/01/26 12:43:37;;;;;;;0.30;0.20;;;;;;;3.37;100.00;101896.00;5041311;28;20443;-54
2022/01/26 12:46:09;;;;;;;0.20;0.10;;;;;;;3.24;100.00;101906.19;5032358;28;20469;-54
2022/01/26 12:48:39;;;;;;;1.60;1.30;;;;;;;3.14;100.00;101898.91;5033992;28;20448;-53
2022/01/26 12:51:10;;;;;;;0.20;0.10;;;;;;;3.21;100.00;101906.13;5026344;28;20529;-54
2022/01/26 12:53:38;;;;;;;0.20;0.10;;;;;;;3.22;100.00;101896.50;5035354;28;20451;-54
2022/01/26 12:56:11;;;;;;;0.20;0.10;;;;;;;3.11;100.00;101887.44;5045180;28;21053;-54
2022/01/26 12:58:42;;;;;;;0.20;0.20;;;;;;;3.26;100.00;101893.09;5048965;28;20802;-53
2022/01/26 13:01:14;;;;;;;0.93;0.93;;;;;;;3.21;100.00;101892.97;5047424;28;20908;-54
2022/01/26 13:03:42;;;;;;;0.20;0.10;;;;;;;3.30;100.00;101899.34;5041853;28;20470;-54
2022/01/26 13:06:11;;;;;;;0.20;0.10;;;;;;;3.15;100.00;101889.28;5042347;28;20855;-54
2022/01/26 13:08:47;;;;;;;0.20;0.10;;;;;;;3.14;100.00;101895.38;5012165;28;20490;-54
2022/01/26 13:11:22;;;;;;;0.20;0.10;;;;;;;3.15;100.00;101898.09;5042025;28;20556;-54
2022/01/26 13:13:49;;;;;;;0.30;0.10;;;;;;;3.20;100.00;101891.19;5046028;28;20471;-54
2022/01/26 13:16:26;;;;;;;0.20;0.10;;;;;;;3.37;100.00;101883.75;5039941;28;20479;-53
2022/01/26 13:19:16;;;;;;;0.20;0.10;;;;;;;3.26;100.00;101878.22;5046782;28;20446;-53
2022/01/26 13:27:22;;;;;;;0.20;0.10;;;;;;;3.35;100.00;101892.47;5044487;28;20472;-52
2022/01/26 13:30:06;;;;;;;0.20;0.10;;;;;;;3.31;100.00;101903.75;5029990;28;20450;-52
2022/01/26 13:40:50;;;;;;;0.20;0.10;;;;;;;3.45;100.00;101900.63;5041127;28;20443;-52
2022/01/26 13:52:16;;;;;;;0.20;0.10;;;;;;;3.61;100.00;101875.63;5040090;28;20897;-54
2022/01/26 13:55:00;;;;;;;0.20;0.10;;;;;;;3.65;100.00;101866.06;5038684;28;20510;-54
2022/01/26 13:59:53;;;;;;;0.20;0.10;;;;;;;3.78;100.00;101866.41;5046524;28;20446;-54
2022/01/26 14:02:19;;;;;;;0.30;0.30;;;;;;;3.84;100.00;101857.81;5030490;28;20474;-54
2022/01/26 14:04:46;;;;;;;0.20;0.10;;;;;;;3.76;100.00;101854.09;5040785;28;20483;-54